sensor_id;sensor_type;location;lat;lon;timestamp;P1;durP1;ratioP1;P2;durP2;ratioP2
7957;SDS011;4024;52.172;5.378;2023-03-21T00:01:56;13.23;;;11.83;;
7957;SDS011;4024;52.172;5.378;2023-03-21T00:04:22;13.43;;;12.03;;
7957;SDS011;4024;52.172;5.378;2023-03-21T00:06:49;15.53;;;13.13;;
7957;SDS011;4024;52.172;5.378;2023-03-21T00:09:15;14.20;;;12.50;;
7957;SDS011;4024;52.172;5.378;2023-03-21T00:11:41;15.73;;;14.17;;
7957;SDS011;4024;52.172;5.378;2023-03-21T00:14:07;15.50;;;14.00;;
7957;SDS011;4024;52.172;5.378;2023-03-21T00:16:38;15.07;;;13.57;;
7957;SDS011;4024;52.172;5.378;2023-03-21T00:19:04;14.93;;;13.47;;
7957;SDS011;4024;52.172;5.378;2023-03-21T00:21:30;15.43;;;13.37;;
7957;SDS011;4024;52.172;5.378;2023-03-21T00:24:00;15.60;;;13.40;;
7957;SDS011;4024;52.172;5.378;2023-03-21T00:26:25;15.03;;;13.50;;
7957;SDS011;4024;52.172;5.378;2023-03-21T00:28:51;15.40;;;13.87;;
7957;SDS011;4024;52.172;5.378;2023-03-21T00:31:17;14.10;;;12.70;;
7957;SDS011;4024;52.172;5.378;2023-03-21T00:33:43;14.70;;;12.83;;
7957;SDS011;4024;52.172;5.378;2023-03-21T00:36:09;12.97;;;11.60;;
7957;SDS011;4024;52.172;5.378;2023-03-21T00:38:36;12.97;;;11.63;;
7957;SDS011;4024;52.172;5.378;2023-03-21T00:41:03;12.30;;;10.77;;
7957;SDS011;4024;52.172;5.378;2023-03-21T00:43:30;13.20;;;11.97;;
7957;SDS011;4024;52.172;5.378;2023-03-21T00:45:57;13.20;;;11.33;;
7957;SDS011;4024;52.172;5.378;2023-03-21T00:48:23;12.30;;;11.10;;
7957;SDS011;4024;52.172;5.378;2023-03-21T00:50:50;12.57;;;11.27;;
7957;SDS011;4024;52.172;5.378;2023-03-21T00:53:17;13.20;;;11.90;;
7957;SDS011;4024;52.172;5.378;2023-03-21T00:55:43;13.20;;;11.90;;
7957;SDS011;4024;52.172;5.378;2023-03-21T00:58:08;13.13;;;11.83;;
7957;SDS011;4024;52.172;5.378;2023-03-21T01:00:35;13.13;;;11.73;;
7957;SDS011;4024;52.172;5.378;2023-03-21T01:03:05;15.17;;;12.30;;
7957;SDS011;4024;52.172;5.378;2023-03-21T01:05:34;14.50;;;13.00;;
7957;SDS011;4024;52.172;5.378;2023-03-21T01:08:39;13.60;;;12.20;;
7957;SDS011;4024;52.172;5.378;2023-03-21T01:11:10;15.87;;;12.20;;
7957;SDS011;4024;52.172;5.378;2023-03-21T01:13:39;13.90;;;12.30;;
7957;SDS011;4024;52.172;5.378;2023-03-21T01:16:06;12.77;;;11.47;;
7957;SDS011;4024;52.172;5.378;2023-03-21T01:18:33;13.83;;;12.00;;
7957;SDS011;4024;52.172;5.378;2023-03-21T01:21:00;13.87;;;12.43;;
7957;SDS011;4024;52.172;5.378;2023-03-21T01:23:26;13.70;;;12.30;;
7957;SDS011;4024;52.172;5.378;2023-03-21T01:25:53;14.43;;;12.93;;
7957;SDS011;4024;52.172;5.378;2023-03-21T01:28:20;15.27;;;13.77;;
7957;SDS011;4024;52.172;5.378;2023-03-21T01:30:50;15.07;;;13.47;;
7957;SDS011;4024;52.172;5.378;2023-03-21T01:33:16;16.07;;;14.43;;
7957;SDS011;4024;52.172;5.378;2023-03-21T01:35:43;16.10;;;14.50;;
7957;SDS011;4024;52.172;5.378;2023-03-21T01:38:09;15.60;;;13.97;;
7957;SDS011;4024;52.172;5.378;2023-03-21T01:40:35;16.60;;;14.90;;
7957;SDS011;4024;52.172;5.378;2023-03-21T01:43:01;16.93;;;15.23;;
7957;SDS011;4024;52.172;5.378;2023-03-21T01:48:32;17.07;;;15.27;;
7957;SDS011;4024;52.172;5.378;2023-03-21T01:51:00;16.93;;;15.30;;
7957;SDS011;4024;52.172;5.378;2023-03-21T01:53:27;18.53;;;16.43;;
7957;SDS011;4024;52.172;5.378;2023-03-21T01:55:57;17.87;;;16.07;;
7957;SDS011;4024;52.172;5.378;2023-03-21T01:58:33;21.30;;;17.33;;
7957;SDS011;4024;52.172;5.378;2023-03-21T02:01:00;17.53;;;15.80;;
7957;SDS011;4024;52.172;5.378;2023-03-21T02:03:27;18.20;;;16.30;;
7957;SDS011;4024;52.172;5.378;2023-03-21T02:06:04;20.70;;;18.57;;
7957;SDS011;4024;52.172;5.378;2023-03-21T02:08:35;20.23;;;17.80;;
7957;SDS011;4024;52.172;5.378;2023-03-21T02:11:01;20.47;;;18.33;;
7957;SDS011;4024;52.172;5.378;2023-03-21T02:13:27;20.67;;;18.57;;
7957;SDS011;4024;52.172;5.378;2023-03-21T02:26:56;20.00;;;17.90;;
7957;SDS011;4024;52.172;5.378;2023-03-21T02:32:22;24.53;;;20.37;;
7957;SDS011;4024;52.172;5.378;2023-03-21T02:40:43;21.73;;;17.93;;
7957;SDS011;4024;52.172;5.378;2023-03-21T02:48:44;24.23;;;19.50;;
7957;SDS011;4024;52.172;5.378;2023-03-21T02:51:18;22.47;;;18.33;;
7957;SDS011;4024;52.172;5.378;2023-03-21T02:53:48;26.83;;;18.97;;
7957;SDS011;4024;52.172;5.378;2023-03-21T02:56:18;23.43;;;19.47;;
7957;SDS011;4024;52.172;5.378;2023-03-21T02:58:46;21.80;;;18.97;;
7957;SDS011;4024;52.172;5.378;2023-03-21T03:01:13;24.33;;;19.33;;
7957;SDS011;4024;52.172;5.378;2023-03-21T03:03:38;25.60;;;19.03;;
7957;SDS011;4024;52.172;5.378;2023-03-21T03:11:42;25.83;;;19.17;;
7957;SDS011;4024;52.172;5.378;2023-03-21T03:16:47;21.47;;;17.87;;
7957;SDS011;4024;52.172;5.378;2023-03-21T03:19:28;25.20;;;18.67;;
7957;SDS011;4024;52.172;5.378;2023-03-21T03:21:57;22.90;;;17.63;;
7957;SDS011;4024;52.172;5.378;2023-03-21T03:24:31;22.97;;;17.43;;
7957;SDS011;4024;52.172;5.378;2023-03-21T03:27:02;20.13;;;16.00;;
7957;SDS011;4024;52.172;5.378;2023-03-21T03:29:32;22.67;;;16.70;;
7957;SDS011;4024;52.172;5.378;2023-03-21T03:32:12;22.10;;;16.90;;
7957;SDS011;4024;52.172;5.378;2023-03-21T03:34:41;21.90;;;16.00;;
7957;SDS011;4024;52.172;5.378;2023-03-21T03:37:14;18.33;;;14.53;;
7957;SDS011;4024;52.172;5.378;2023-03-21T03:39:45;20.60;;;14.73;;
7957;SDS011;4024;52.172;5.378;2023-03-21T03:42:27;17.60;;;14.23;;
7957;SDS011;4024;52.172;5.378;2023-03-21T03:45:00;19.20;;;15.00;;
7957;SDS011;4024;52.172;5.378;2023-03-21T03:47:36;17.87;;;13.60;;
7957;SDS011;4024;52.172;5.378;2023-03-21T03:50:30;15.70;;;12.80;;
7957;SDS011;4024;52.172;5.378;2023-03-21T03:53:23;16.93;;;13.17;;
7957;SDS011;4024;52.172;5.378;2023-03-21T03:55:59;17.37;;;11.93;;
7957;SDS011;4024;52.172;5.378;2023-03-21T03:58:25;18.30;;;12.77;;
7957;SDS011;4024;52.172;5.378;2023-03-21T04:00:52;17.70;;;12.40;;
7957;SDS011;4024;52.172;5.378;2023-03-21T04:03:19;15.40;;;12.17;;
7957;SDS011;4024;52.172;5.378;2023-03-21T04:05:45;15.00;;;13.13;;
7957;SDS011;4024;52.172;5.378;2023-03-21T04:08:11;17.93;;;12.50;;
7957;SDS011;4024;52.172;5.378;2023-03-21T04:10:39;20.77;;;12.93;;
7957;SDS011;4024;52.172;5.378;2023-03-21T04:13:06;15.93;;;12.97;;
7957;SDS011;4024;52.172;5.378;2023-03-21T04:15:32;15.33;;;13.57;;
7957;SDS011;4024;52.172;5.378;2023-03-21T04:17:57;19.47;;;14.80;;
7957;SDS011;4024;52.172;5.378;2023-03-21T04:20:23;23.87;;;16.03;;
7957;SDS011;4024;52.172;5.378;2023-03-21T04:22:49;19.67;;;16.07;;
7957;SDS011;4024;52.172;5.378;2023-03-21T04:25:15;18.83;;;15.67;;
7957;SDS011;4024;52.172;5.378;2023-03-21T04:27:41;20.27;;;16.47;;
7957;SDS011;4024;52.172;5.378;2023-03-21T04:30:07;22.00;;;17.33;;
7957;SDS011;4024;52.172;5.378;2023-03-21T04:32:33;25.20;;;18.73;;
7957;SDS011;4024;52.172;5.378;2023-03-21T04:35:03;27.60;;;20.47;;
7957;SDS011;4024;52.172;5.378;2023-03-21T04:37:30;23.07;;;19.77;;
7957;SDS011;4024;52.172;5.378;2023-03-21T04:39:57;28.23;;;20.60;;
7957;SDS011;4024;52.172;5.378;2023-03-21T04:42:23;27.93;;;19.90;;
7957;SDS011;4024;52.172;5.378;2023-03-21T04:44:49;28.70;;;20.87;;
7957;SDS011;4024;52.172;5.378;2023-03-21T04:47:15;26.50;;;20.80;;
7957;SDS011;4024;52.172;5.378;2023-03-21T04:49:42;30.73;;;21.03;;
7957;SDS011;4024;52.172;5.378;2023-03-21T04:52:07;27.90;;;20.27;;
7957;SDS011;4024;52.172;5.378;2023-03-21T04:54:33;29.33;;;21.80;;
7957;SDS011;4024;52.172;5.378;2023-03-21T04:56:59;27.60;;;21.17;;
7957;SDS011;4024;52.172;5.378;2023-03-21T04:59:25;28.40;;;22.07;;
7957;SDS011;4024;52.172;5.378;2023-03-21T05:01:50;29.07;;;22.03;;
7957;SDS011;4024;52.172;5.378;2023-03-21T05:04:16;34.07;;;23.33;;
7957;SDS011;4024;52.172;5.378;2023-03-21T05:06:42;28.67;;;21.27;;
7957;SDS011;4024;52.172;5.378;2023-03-21T05:09:10;29.47;;;20.37;;
7957;SDS011;4024;52.172;5.378;2023-03-21T05:11:37;25.93;;;20.07;;
7957;SDS011;4024;52.172;5.378;2023-03-21T05:14:04;27.83;;;18.90;;
7957;SDS011;4024;52.172;5.378;2023-03-21T05:16:31;22.13;;;17.80;;
7957;SDS011;4024;52.172;5.378;2023-03-21T05:18:59;26.50;;;17.17;;
7957;SDS011;4024;52.172;5.378;2023-03-21T05:21:29;23.27;;;16.60;;
7957;SDS011;4024;52.172;5.378;2023-03-21T05:23:58;30.10;;;16.80;;
7957;SDS011;4024;52.172;5.378;2023-03-21T05:26:27;25.10;;;17.60;;
7957;SDS011;4024;52.172;5.378;2023-03-21T05:28:53;25.17;;;17.57;;
7957;SDS011;4024;52.172;5.378;2023-03-21T05:31:20;21.07;;;15.67;;
7957;SDS011;4024;52.172;5.378;2023-03-21T05:33:46;20.17;;;15.83;;
7957;SDS011;4024;52.172;5.378;2023-03-21T05:36:12;22.47;;;15.47;;
7957;SDS011;4024;52.172;5.378;2023-03-21T05:38:38;25.30;;;16.03;;
7957;SDS011;4024;52.172;5.378;2023-03-21T05:41:09;21.67;;;15.67;;
7957;SDS011;4024;52.172;5.378;2023-03-21T05:43:36;23.73;;;15.87;;
7957;SDS011;4024;52.172;5.378;2023-03-21T05:46:01;22.50;;;15.70;;
7957;SDS011;4024;52.172;5.378;2023-03-21T05:48:27;22.63;;;15.17;;
7957;SDS011;4024;52.172;5.378;2023-03-21T05:50:53;24.23;;;15.43;;
7957;SDS011;4024;52.172;5.378;2023-03-21T05:53:18;24.57;;;15.67;;
7957;SDS011;4024;52.172;5.378;2023-03-21T05:55:44;22.47;;;15.37;;
7957;SDS011;4024;52.172;5.378;2023-03-21T05:58:10;20.93;;;14.77;;
7957;SDS011;4024;52.172;5.378;2023-03-21T06:00:36;23.07;;;15.00;;
7957;SDS011;4024;52.172;5.378;2023-03-21T06:03:02;20.57;;;14.77;;
7957;SDS011;4024;52.172;5.378;2023-03-21T06:05:27;19.73;;;14.40;;
7957;SDS011;4024;52.172;5.378;2023-03-21T06:07:53;21.37;;;15.40;;
7957;SDS011;4024;52.172;5.378;2023-03-21T06:10:19;20.70;;;14.33;;
7957;SDS011;4024;52.172;5.378;2023-03-21T06:12:45;22.93;;;15.87;;
7957;SDS011;4024;52.172;5.378;2023-03-21T06:15:10;20.07;;;14.27;;
7957;SDS011;4024;52.172;5.378;2023-03-21T06:17:36;21.93;;;14.73;;
7957;SDS011;4024;52.172;5.378;2023-03-21T06:20:04;21.30;;;14.93;;
7957;SDS011;4024;52.172;5.378;2023-03-21T06:22:31;19.60;;;14.23;;
7957;SDS011;4024;52.172;5.378;2023-03-21T06:25:00;20.53;;;14.37;;
7957;SDS011;4024;52.172;5.378;2023-03-21T06:27:28;19.50;;;13.90;;
7957;SDS011;4024;52.172;5.378;2023-03-21T06:29:54;22.47;;;14.73;;
7957;SDS011;4024;52.172;5.378;2023-03-21T06:32:26;23.37;;;14.27;;
7957;SDS011;4024;52.172;5.378;2023-03-21T06:34:51;18.17;;;13.37;;
7957;SDS011;4024;52.172;5.378;2023-03-21T06:37:17;21.93;;;14.80;;
7957;SDS011;4024;52.172;5.378;2023-03-21T06:39:43;18.70;;;13.83;;
7957;SDS011;4024;52.172;5.378;2023-03-21T06:42:10;22.13;;;14.47;;
7957;SDS011;4024;52.172;5.378;2023-03-21T06:44:40;22.13;;;13.20;;
7957;SDS011;4024;52.172;5.378;2023-03-21T06:47:11;19.40;;;13.50;;
7957;SDS011;4024;52.172;5.378;2023-03-21T06:49:37;17.53;;;12.23;;
7957;SDS011;4024;52.172;5.378;2023-03-21T06:52:02;20.13;;;13.33;;
7957;SDS011;4024;52.172;5.378;2023-03-21T06:54:28;21.67;;;12.93;;
7957;SDS011;4024;52.172;5.378;2023-03-21T06:56:56;19.80;;;13.73;;
7957;SDS011;4024;52.172;5.378;2023-03-21T06:59:21;17.67;;;12.70;;
7957;SDS011;4024;52.172;5.378;2023-03-21T07:01:47;19.83;;;12.53;;
7957;SDS011;4024;52.172;5.378;2023-03-21T07:04:12;18.73;;;12.47;;
7957;SDS011;4024;52.172;5.378;2023-03-21T07:06:38;20.73;;;11.90;;
7957;SDS011;4024;52.172;5.378;2023-03-21T07:09:04;17.87;;;12.33;;
7957;SDS011;4024;52.172;5.378;2023-03-21T07:11:30;19.20;;;12.23;;
7957;SDS011;4024;52.172;5.378;2023-03-21T07:13:57;17.23;;;12.53;;
7957;SDS011;4024;52.172;5.378;2023-03-21T07:16:23;17.80;;;12.30;;
7957;SDS011;4024;52.172;5.378;2023-03-21T07:18:49;18.17;;;11.50;;
7957;SDS011;4024;52.172;5.378;2023-03-21T07:21:15;21.53;;;12.50;;
7957;SDS011;4024;52.172;5.378;2023-03-21T07:23:41;19.57;;;13.23;;
7957;SDS011;4024;52.172;5.378;2023-03-21T07:26:07;17.90;;;12.17;;
7957;SDS011;4024;52.172;5.378;2023-03-21T07:28:34;19.33;;;11.83;;
7957;SDS011;4024;52.172;5.378;2023-03-21T07:31:00;17.63;;;12.57;;
7957;SDS011;4024;52.172;5.378;2023-03-21T07:33:28;18.27;;;12.43;;
7957;SDS011;4024;52.172;5.378;2023-03-21T07:35:55;16.93;;;11.90;;
7957;SDS011;4024;52.172;5.378;2023-03-21T07:38:24;17.90;;;11.43;;
7957;SDS011;4024;52.172;5.378;2023-03-21T07:40:51;19.20;;;11.70;;
7957;SDS011;4024;52.172;5.378;2023-03-21T07:43:17;18.07;;;11.70;;
7957;SDS011;4024;52.172;5.378;2023-03-21T07:45:43;18.17;;;11.50;;
7957;SDS011;4024;52.172;5.378;2023-03-21T07:48:09;16.40;;;10.90;;
7957;SDS011;4024;52.172;5.378;2023-03-21T07:50:37;22.23;;;11.40;;
7957;SDS011;4024;52.172;5.378;2023-03-21T07:53:03;17.63;;;11.27;;
7957;SDS011;4024;52.172;5.378;2023-03-21T07:55:28;15.83;;;10.90;;
7957;SDS011;4024;52.172;5.378;2023-03-21T07:57:54;15.90;;;10.40;;
7957;SDS011;4024;52.172;5.378;2023-03-21T08:00:20;16.30;;;10.73;;
7957;SDS011;4024;52.172;5.378;2023-03-21T08:02:50;16.47;;;10.33;;
7957;SDS011;4024;52.172;5.378;2023-03-21T08:05:23;17.37;;;10.50;;
7957;SDS011;4024;52.172;5.378;2023-03-21T08:07:51;15.10;;;10.53;;
7957;SDS011;4024;52.172;5.378;2023-03-21T08:10:17;17.03;;;11.17;;
7957;SDS011;4024;52.172;5.378;2023-03-21T08:12:43;18.67;;;11.37;;
7957;SDS011;4024;52.172;5.378;2023-03-21T08:15:09;20.90;;;10.50;;
7957;SDS011;4024;52.172;5.378;2023-03-21T08:17:36;14.70;;;10.70;;
7957;SDS011;4024;52.172;5.378;2023-03-21T08:20:04;19.47;;;9.80;;
7957;SDS011;4024;52.172;5.378;2023-03-21T08:22:34;16.50;;;11.00;;
7957;SDS011;4024;52.172;5.378;2023-03-21T08:25:01;15.80;;;10.83;;
7957;SDS011;4024;52.172;5.378;2023-03-21T08:27:32;15.73;;;10.60;;
7957;SDS011;4024;52.172;5.378;2023-03-21T08:29:58;15.53;;;10.80;;
7957;SDS011;4024;52.172;5.378;2023-03-21T08:32:27;17.83;;;11.13;;
7957;SDS011;4024;52.172;5.378;2023-03-21T08:34:57;15.90;;;10.57;;
7957;SDS011;4024;52.172;5.378;2023-03-21T08:37:25;18.57;;;10.03;;
7957;SDS011;4024;52.172;5.378;2023-03-21T08:39:52;17.20;;;10.73;;
7957;SDS011;4024;52.172;5.378;2023-03-21T08:42:18;18.00;;;10.47;;
7957;SDS011;4024;52.172;5.378;2023-03-21T08:44:44;18.57;;;10.53;;
7957;SDS011;4024;52.172;5.378;2023-03-21T08:47:10;15.93;;;9.70;;
7957;SDS011;4024;52.172;5.378;2023-03-21T08:49:36;17.87;;;9.83;;
7957;SDS011;4024;52.172;5.378;2023-03-21T08:52:02;16.27;;;10.17;;
7957;SDS011;4024;52.172;5.378;2023-03-21T08:54:28;14.40;;;9.80;;
7957;SDS011;4024;52.172;5.378;2023-03-21T08:56:53;15.23;;;9.40;;
7957;SDS011;4024;52.172;5.378;2023-03-21T08:59:19;15.13;;;9.50;;
7957;SDS011;4024;52.172;5.378;2023-03-21T09:01:45;14.50;;;8.67;;
7957;SDS011;4024;52.172;5.378;2023-03-21T09:04:11;14.93;;;9.40;;
7957;SDS011;4024;52.172;5.378;2023-03-21T09:06:36;15.70;;;8.63;;
7957;SDS011;4024;52.172;5.378;2023-03-21T09:09:04;14.97;;;8.60;;
7957;SDS011;4024;52.172;5.378;2023-03-21T09:11:33;11.67;;;7.67;;
7957;SDS011;4024;52.172;5.378;2023-03-21T09:13:59;16.80;;;8.33;;
7957;SDS011;4024;52.172;5.378;2023-03-21T09:16:26;15.10;;;7.77;;
7957;SDS011;4024;52.172;5.378;2023-03-21T09:18:51;11.50;;;7.83;;
7957;SDS011;4024;52.172;5.378;2023-03-21T09:21:19;13.03;;;8.00;;
7957;SDS011;4024;52.172;5.378;2023-03-21T09:23:47;19.33;;;8.50;;
7957;SDS011;4024;52.172;5.378;2023-03-21T09:26:19;9.93;;;7.17;;
7957;SDS011;4024;52.172;5.378;2023-03-21T09:28:45;12.47;;;8.03;;
7957;SDS011;4024;52.172;5.378;2023-03-21T09:31:11;14.93;;;8.40;;
7957;SDS011;4024;52.172;5.378;2023-03-21T09:33:38;11.47;;;8.37;;
7957;SDS011;4024;52.172;5.378;2023-03-21T09:36:05;12.20;;;7.57;;
7957;SDS011;4024;52.172;5.378;2023-03-21T09:38:35;12.07;;;8.07;;
7957;SDS011;4024;52.172;5.378;2023-03-21T09:46:23;11.03;;;7.97;;
7957;SDS011;4024;52.172;5.378;2023-03-21T09:48:55;16.00;;;8.47;;
7957;SDS011;4024;52.172;5.378;2023-03-21T09:51:30;14.83;;;8.70;;
7957;SDS011;4024;52.172;5.378;2023-03-21T09:54:02;11.27;;;7.80;;
7957;SDS011;4024;52.172;5.378;2023-03-21T09:56:33;11.00;;;8.03;;
7957;SDS011;4024;52.172;5.378;2023-03-21T09:59:00;10.23;;;6.93;;
7957;SDS011;4024;52.172;5.378;2023-03-21T10:01:31;14.70;;;8.07;;
7957;SDS011;4024;52.172;5.378;2023-03-21T10:04:04;12.77;;;7.93;;
7957;SDS011;4024;52.172;5.378;2023-03-21T10:06:35;12.00;;;7.57;;
7957;SDS011;4024;52.172;5.378;2023-03-21T10:09:05;12.20;;;7.50;;
7957;SDS011;4024;52.172;5.378;2023-03-21T10:12:00;13.57;;;8.10;;
7957;SDS011;4024;52.172;5.378;2023-03-21T10:14:38;10.87;;;7.43;;
7957;SDS011;4024;52.172;5.378;2023-03-21T10:17:21;8.50;;;7.13;;
7957;SDS011;4024;52.172;5.378;2023-03-21T10:22:34;12.93;;;8.43;;
7957;SDS011;4024;52.172;5.378;2023-03-21T10:25:00;11.00;;;8.10;;
7957;SDS011;4024;52.172;5.378;2023-03-21T10:27:26;13.23;;;7.83;;
7957;SDS011;4024;52.172;5.378;2023-03-21T10:29:52;15.97;;;8.60;;
7957;SDS011;4024;52.172;5.378;2023-03-21T10:32:17;11.97;;;7.50;;
7957;SDS011;4024;52.172;5.378;2023-03-21T10:34:50;12.30;;;8.20;;
7957;SDS011;4024;52.172;5.378;2023-03-21T10:37:19;10.87;;;8.23;;
7957;SDS011;4024;52.172;5.378;2023-03-21T10:39:47;13.47;;;7.60;;
7957;SDS011;4024;52.172;5.378;2023-03-21T10:42:20;15.53;;;8.10;;
7957;SDS011;4024;52.172;5.378;2023-03-21T10:44:49;12.23;;;7.67;;
7957;SDS011;4024;52.172;5.378;2023-03-21T10:47:23;13.70;;;7.70;;
7957;SDS011;4024;52.172;5.378;2023-03-21T10:49:57;10.80;;;7.13;;
7957;SDS011;4024;52.172;5.378;2023-03-21T10:52:54;14.47;;;7.37;;
7957;SDS011;4024;52.172;5.378;2023-03-21T10:55:32;17.27;;;7.67;;
7957;SDS011;4024;52.172;5.378;2023-03-21T10:57:59;14.57;;;8.37;;
7957;SDS011;4024;52.172;5.378;2023-03-21T11:00:28;10.90;;;8.20;;
7957;SDS011;4024;52.172;5.378;2023-03-21T11:02:59;12.80;;;8.37;;
7957;SDS011;4024;52.172;5.378;2023-03-21T11:05:37;12.80;;;7.77;;
7957;SDS011;4024;52.172;5.378;2023-03-21T11:08:06;11.47;;;7.30;;
7957;SDS011;4024;52.172;5.378;2023-03-21T11:13:26;11.83;;;7.33;;
7957;SDS011;4024;52.172;5.378;2023-03-21T11:16:09;12.10;;;7.57;;
7957;SDS011;4024;52.172;5.378;2023-03-21T11:18:43;12.10;;;7.87;;
7957;SDS011;4024;52.172;5.378;2023-03-21T11:21:13;14.00;;;7.77;;
7957;SDS011;4024;52.172;5.378;2023-03-21T11:23:44;12.47;;;7.13;;
7957;SDS011;4024;52.172;5.378;2023-03-21T11:26:20;11.83;;;7.30;;
7957;SDS011;4024;52.172;5.378;2023-03-21T11:28:50;8.57;;;6.87;;
7957;SDS011;4024;52.172;5.378;2023-03-21T11:31:17;12.83;;;7.20;;
7957;SDS011;4024;52.172;5.378;2023-03-21T11:33:54;12.73;;;6.80;;
7957;SDS011;4024;52.172;5.378;2023-03-21T11:36:32;11.70;;;7.47;;
7957;SDS011;4024;52.172;5.378;2023-03-21T11:41:48;8.53;;;6.93;;
7957;SDS011;4024;52.172;5.378;2023-03-21T11:44:26;11.67;;;7.30;;
7957;SDS011;4024;52.172;5.378;2023-03-21T11:46:54;10.03;;;6.90;;
7957;SDS011;4024;52.172;5.378;2023-03-21T11:49:20;13.67;;;7.20;;
7957;SDS011;4024;52.172;5.378;2023-03-21T11:51:58;10.00;;;7.10;;
7957;SDS011;4024;52.172;5.378;2023-03-21T11:54:50;11.87;;;7.63;;
7957;SDS011;4024;52.172;5.378;2023-03-21T12:00:02;11.20;;;7.07;;
7957;SDS011;4024;52.172;5.378;2023-03-21T12:05:52;15.47;;;7.33;;
7957;SDS011;4024;52.172;5.378;2023-03-21T12:11:18;16.43;;;8.00;;
7957;SDS011;4024;52.172;5.378;2023-03-21T12:14:01;11.10;;;7.10;;
7957;SDS011;4024;52.172;5.378;2023-03-21T12:22:19;9.63;;;7.33;;
7957;SDS011;4024;52.172;5.378;2023-03-21T12:25:04;11.13;;;7.20;;
7957;SDS011;4024;52.172;5.378;2023-03-21T12:33:15;10.10;;;7.90;;
7957;SDS011;4024;52.172;5.378;2023-03-21T12:36:13;12.60;;;8.20;;
7957;SDS011;4024;52.172;5.378;2023-03-21T12:45:02;11.10;;;7.33;;
7957;SDS011;4024;52.172;5.378;2023-03-21T12:47:40;13.03;;;7.87;;
7957;SDS011;4024;52.172;5.378;2023-03-21T12:50:17;11.50;;;9.03;;
7957;SDS011;4024;52.172;5.378;2023-03-21T12:53:00;16.47;;;8.93;;
7957;SDS011;4024;52.172;5.378;2023-03-21T12:55:50;15.80;;;9.10;;
7957;SDS011;4024;52.172;5.378;2023-03-21T12:58:18;18.17;;;9.13;;
7957;SDS011;4024;52.172;5.378;2023-03-21T13:03:17;14.80;;;8.50;;
7957;SDS011;4024;52.172;5.378;2023-03-21T13:05:57;12.50;;;8.73;;
7957;SDS011;4024;52.172;5.378;2023-03-21T13:08:32;13.87;;;9.40;;
7957;SDS011;4024;52.172;5.378;2023-03-21T13:11:19;15.37;;;9.30;;
7957;SDS011;4024;52.172;5.378;2023-03-21T13:16:20;10.87;;;8.43;;
7957;SDS011;4024;52.172;5.378;2023-03-21T13:19:02;9.23;;;7.87;;
7957;SDS011;4024;52.172;5.378;2023-03-21T13:24:31;10.53;;;8.30;;
7957;SDS011;4024;52.172;5.378;2023-03-21T13:27:04;12.30;;;7.70;;
7957;SDS011;4024;52.172;5.378;2023-03-21T13:29:33;8.50;;;6.70;;
7957;SDS011;4024;52.172;5.378;2023-03-21T13:35:01;10.73;;;6.30;;
7957;SDS011;4024;52.172;5.378;2023-03-21T13:37:34;10.57;;;7.27;;
7957;SDS011;4024;52.172;5.378;2023-03-21T13:40:06;14.47;;;7.80;;
7957;SDS011;4024;52.172;5.378;2023-03-21T13:42:49;8.93;;;7.63;;
7957;SDS011;4024;52.172;5.378;2023-03-21T13:46:00;8.60;;;7.13;;
7957;SDS011;4024;52.172;5.378;2023-03-21T13:54:01;10.17;;;7.10;;
7957;SDS011;4024;52.172;5.378;2023-03-21T14:04:56;12.07;;;8.43;;
7957;SDS011;4024;52.172;5.378;2023-03-21T14:07:26;10.57;;;7.70;;
7957;SDS011;4024;52.172;5.378;2023-03-21T14:10:01;11.03;;;7.50;;
7957;SDS011;4024;52.172;5.378;2023-03-21T14:12:38;9.77;;;7.80;;
7957;SDS011;4024;52.172;5.378;2023-03-21T14:15:07;10.13;;;7.63;;
7957;SDS011;4024;52.172;5.378;2023-03-21T14:17:48;11.20;;;7.60;;
7957;SDS011;4024;52.172;5.378;2023-03-21T14:20:33;9.23;;;7.67;;
7957;SDS011;4024;52.172;5.378;2023-03-21T14:23:03;11.73;;;7.77;;
7957;SDS011;4024;52.172;5.378;2023-03-21T14:25:34;9.40;;;8.37;;
7957;SDS011;4024;52.172;5.378;2023-03-21T14:28:03;11.33;;;8.30;;
7957;SDS011;4024;52.172;5.378;2023-03-21T14:30:36;12.13;;;8.37;;
7957;SDS011;4024;52.172;5.378;2023-03-21T14:33:06;9.60;;;8.53;;
7957;SDS011;4024;52.172;5.378;2023-03-21T14:35:47;11.60;;;8.23;;
7957;SDS011;4024;52.172;5.378;2023-03-21T14:38:18;12.67;;;9.17;;
7957;SDS011;4024;52.172;5.378;2023-03-21T14:40:46;9.73;;;8.63;;
7957;SDS011;4024;52.172;5.378;2023-03-21T14:43:14;11.57;;;8.90;;
7957;SDS011;4024;52.172;5.378;2023-03-21T14:45:40;10.67;;;8.83;;
7957;SDS011;4024;52.172;5.378;2023-03-21T14:48:12;12.80;;;9.20;;
7957;SDS011;4024;52.172;5.378;2023-03-21T14:50:47;11.20;;;9.13;;
7957;SDS011;4024;52.172;5.378;2023-03-21T14:53:27;9.07;;;8.17;;
7957;SDS011;4024;52.172;5.378;2023-03-21T14:55:58;9.80;;;8.53;;
7957;SDS011;4024;52.172;5.378;2023-03-21T14:58:26;10.90;;;8.10;;
7957;SDS011;4024;52.172;5.378;2023-03-21T15:00:56;10.67;;;8.77;;
7957;SDS011;4024;52.172;5.378;2023-03-21T15:03:25;12.10;;;9.73;;
7957;SDS011;4024;52.172;5.378;2023-03-21T15:05:52;12.27;;;8.87;;
7957;SDS011;4024;52.172;5.378;2023-03-21T15:08:21;11.50;;;9.03;;
7957;SDS011;4024;52.172;5.378;2023-03-21T15:13:26;11.20;;;8.67;;
7957;SDS011;4024;52.172;5.378;2023-03-21T15:15:54;13.57;;;8.83;;
7957;SDS011;4024;52.172;5.378;2023-03-21T15:18:27;10.83;;;8.23;;
7957;SDS011;4024;52.172;5.378;2023-03-21T15:21:07;9.70;;;8.77;;
7957;SDS011;4024;52.172;5.378;2023-03-21T15:23:44;12.50;;;9.20;;
7957;SDS011;4024;52.172;5.378;2023-03-21T15:26:15;11.73;;;9.37;;
7957;SDS011;4024;52.172;5.378;2023-03-21T15:28:43;10.53;;;9.33;;
7957;SDS011;4024;52.172;5.378;2023-03-21T15:31:17;9.93;;;8.80;;
7957;SDS011;4024;52.172;5.378;2023-03-21T15:33:48;9.93;;;8.70;;
7957;SDS011;4024;52.172;5.378;2023-03-21T15:36:34;10.10;;;8.33;;
7957;SDS011;4024;52.172;5.378;2023-03-21T15:39:07;11.93;;;8.37;;
7957;SDS011;4024;52.172;5.378;2023-03-21T15:41:37;9.67;;;8.37;;
7957;SDS011;4024;52.172;5.378;2023-03-21T15:51:40;11.27;;;9.50;;
7957;SDS011;4024;52.172;5.378;2023-03-21T15:54:13;9.50;;;8.50;;
7957;SDS011;4024;52.172;5.378;2023-03-21T15:56:41;10.97;;;8.67;;
7957;SDS011;4024;52.172;5.378;2023-03-21T15:59:14;12.40;;;10.30;;
7957;SDS011;4024;52.172;5.378;2023-03-21T16:01:44;11.70;;;8.93;;
7957;SDS011;4024;52.172;5.378;2023-03-21T16:04:11;13.03;;;8.50;;
7957;SDS011;4024;52.172;5.378;2023-03-21T16:06:37;10.90;;;9.63;;
7957;SDS011;4024;52.172;5.378;2023-03-21T16:09:14;11.93;;;9.40;;
7957;SDS011;4024;52.172;5.378;2023-03-21T16:14:15;13.27;;;9.70;;
7957;SDS011;4024;52.172;5.378;2023-03-21T16:16:42;14.20;;;10.20;;
7957;SDS011;4024;52.172;5.378;2023-03-21T16:19:09;16.37;;;10.23;;
7957;SDS011;4024;52.172;5.378;2023-03-21T16:21:34;12.73;;;9.67;;
7957;SDS011;4024;52.172;5.378;2023-03-21T16:24:02;11.93;;;10.63;;
7957;SDS011;4024;52.172;5.378;2023-03-21T16:26:30;15.27;;;10.80;;
7957;SDS011;4024;52.172;5.378;2023-03-21T16:28:58;13.50;;;10.33;;
7957;SDS011;4024;52.172;5.378;2023-03-21T16:31:28;13.37;;;10.13;;
7957;SDS011;4024;52.172;5.378;2023-03-21T16:33:55;12.67;;;10.60;;
7957;SDS011;4024;52.172;5.378;2023-03-21T16:36:28;12.47;;;10.47;;
7957;SDS011;4024;52.172;5.378;2023-03-21T16:38:56;15.23;;;10.53;;
7957;SDS011;4024;52.172;5.378;2023-03-21T16:41:22;14.57;;;10.93;;
7957;SDS011;4024;52.172;5.378;2023-03-21T16:43:49;11.13;;;9.67;;
7957;SDS011;4024;52.172;5.378;2023-03-21T16:46:25;13.23;;;8.80;;
7957;SDS011;4024;52.172;5.378;2023-03-21T16:48:55;10.73;;;9.70;;
7957;SDS011;4024;52.172;5.378;2023-03-21T16:51:23;9.47;;;8.30;;
7957;SDS011;4024;52.172;5.378;2023-03-21T16:53:53;10.77;;;9.30;;
7957;SDS011;4024;52.172;5.378;2023-03-21T16:56:20;11.43;;;9.07;;
7957;SDS011;4024;52.172;5.378;2023-03-21T16:58:52;9.53;;;8.53;;
7957;SDS011;4024;52.172;5.378;2023-03-21T17:01:19;10.03;;;9.03;;
7957;SDS011;4024;52.172;5.378;2023-03-21T17:03:50;9.97;;;8.53;;
7957;SDS011;4024;52.172;5.378;2023-03-21T17:06:23;9.90;;;8.60;;